createdAt,value
2022-12-25T00:01:22.572Z,100864.34
2022-12-25T00:03:50.159Z,100856.31
2022-12-25T00:06:17.364Z,100861.53
2022-12-25T00:08:44.555Z,100864.94
2022-12-25T00:11:14.918Z,100862.28
2022-12-25T00:13:42.480Z,100874.44
2022-12-25T00:16:21.788Z,100884.06
2022-12-25T00:18:49.797Z,100889.38
2022-12-25T00:21:17.619Z,100891.19
2022-12-25T00:23:44.545Z,100892.06
2022-12-25T00:26:14.530Z,100889.47
2022-12-25T00:28:41.673Z,100907.87
2022-12-25T00:31:12.010Z,100896.47
2022-12-25T00:33:40.849Z,100890.34
2022-12-25T00:36:09.484Z,100900.00
2022-12-25T00:38:38.658Z,100907.87
2022-12-25T00:41:08.125Z,100915.72
2022-12-25T00:43:35.424Z,100917.50
2022-12-25T00:46:04.539Z,100914.94
2022-12-25T00:48:32.720Z,100902.63
2022-12-25T00:51:03.092Z,100915.91
2022-12-25T00:53:30.864Z,100922.00
2022-12-25T00:56:06.601Z,100923.69
2022-12-25T00:58:34.874Z,100906.97
2022-12-25T01:01:03.023Z,100919.19
2022-12-25T01:03:30.493Z,100927.81
2022-12-25T01:06:06.377Z,100939.94
2022-12-25T01:08:36.089Z,100935.44
2022-12-25T01:11:07.144Z,100942.44
2022-12-25T01:13:35.904Z,100945.06
2022-12-25T01:16:07.379Z,100951.25
2022-12-25T01:18:35.505Z,100949.63
2022-12-25T01:21:07.665Z,100959.31
2022-12-25T01:23:34.746Z,100938.19
2022-12-25T01:26:06.735Z,100957.56
2022-12-25T01:28:34.225Z,100954.00
2022-12-25T01:31:02.000Z,100952.94
2022-12-25T01:33:29.795Z,100961.56
2022-12-25T01:35:57.865Z,100962.47
2022-12-25T01:38:24.871Z,100968.56
2022-12-25T01:40:52.077Z,100971.16
2022-12-25T01:43:32.317Z,100981.56
2022-12-25T01:45:59.539Z,100970.13
2022-12-25T01:48:36.182Z,100959.50
2022-12-25T01:51:15.892Z,100960.25
2022-12-25T01:53:42.814Z,100959.34
2022-12-25T01:56:09.855Z,100968.03
2022-12-25T01:58:37.030Z,100977.69
2022-12-25T02:01:04.068Z,100957.44
2022-12-25T02:03:31.154Z,100970.62
2022-12-25T02:06:00.557Z,100974.06
2022-12-25T02:08:27.562Z,100972.31
2022-12-25T02:10:54.380Z,100972.37
2022-12-25T02:13:21.381Z,100967.22
2022-12-25T02:16:09.245Z,100971.56
2022-12-25T02:18:44.707Z,100966.25
2022-12-25T02:21:37.920Z,100971.44
2022-12-25T02:24:52.336Z,100967.94
2022-12-25T02:27:25.272Z,100973.13
2022-12-25T02:30:10.988Z,100974.94
2022-12-25T02:32:51.859Z,100969.56
2022-12-25T02:35:26.965Z,100978.31
2022-12-25T02:37:59.586Z,100974.69
2022-12-25T02:40:33.049Z,100986.94
2022-12-25T02:43:22.822Z,100990.44
2022-12-25T02:46:19.003Z,100993.06
2022-12-25T02:49:09.366Z,100989.50
2022-12-25T02:51:59.736Z,100989.41
2022-12-25T02:54:55.798Z,100990.34
2022-12-25T02:57:46.279Z,100991.16
2022-12-25T03:00:33.562Z,100998.22
2022-12-25T03:03:22.078Z,100993.81
2022-12-25T03:06:11.749Z,101014.00
2022-12-25T03:08:43.230Z,101006.19
2022-12-25T03:11:30.897Z,101010.56
2022-12-25T03:14:23.055Z,101010.44
2022-12-25T03:16:55.386Z,100999.78
2022-12-25T03:19:45.225Z,101007.63
2022-12-25T03:22:37.778Z,101011.66
2022-12-25T03:25:23.674Z,101025.66
2022-12-25T03:27:54.946Z,101033.87
2022-12-25T03:30:45.719Z,101040.06
2022-12-25T03:33:46.275Z,101031.31
2022-12-25T03:36:25.511Z,101039.25
2022-12-25T03:39:44.225Z,101039.19
2022-12-25T03:42:32.332Z,101046.06
2022-12-25T03:45:24.236Z,101047.97
2022-12-25T03:48:12.419Z,101038.41
2022-12-25T03:51:12.860Z,101016.31
2022-12-25T03:54:02.996Z,101038.19
2022-12-25T03:56:50.820Z,101044.00
2022-12-25T03:59:41.082Z,101043.03
2022-12-25T04:02:26.787Z,101044.00
2022-12-25T04:05:12.263Z,101053.50
2022-12-25T04:07:58.160Z,101033.44
2022-12-25T04:10:43.950Z,101046.31
2022-12-25T04:13:29.744Z,101046.09
2022-12-25T04:16:34.956Z,101039.88
2022-12-25T04:19:20.841Z,101040.63
2022-12-25T04:22:06.161Z,101040.53
2022-12-25T04:24:51.578Z,101045.62
2022-12-25T04:27:36.808Z,101044.66
2022-12-25T04:30:22.906Z,101057.84
2022-12-25T04:33:08.159Z,101056.97
2022-12-25T04:35:53.727Z,101053.28
2022-12-25T04:38:21.161Z,101051.47
2022-12-25T04:40:48.124Z,101054.84
2022-12-25T04:43:14.982Z,101062.66
2022-12-25T04:45:41.821Z,101054.72
2022-12-25T04:48:08.696Z,101050.25
2022-12-25T04:50:35.650Z,101050.16
2022-12-25T04:53:02.639Z,101059.53
2022-12-25T04:55:29.498Z,101059.47
2022-12-25T04:57:56.430Z,101059.31
2022-12-25T05:00:23.457Z,101066.09
2022-12-25T05:02:50.532Z,101073.81
2022-12-25T05:05:17.490Z,101063.13
2022-12-25T05:07:44.369Z,101065.72
2022-12-25T05:10:11.781Z,101071.69
2022-12-25T05:12:38.638Z,101068.94
2022-12-25T05:15:05.828Z,101062.00
2022-12-25T05:17:32.781Z,101081.97
2022-12-25T05:19:59.848Z,101087.16
2022-12-25T05:22:26.927Z,101085.34
2022-12-25T05:24:53.812Z,101069.38
2022-12-25T05:27:20.701Z,101086.78
2022-12-25T05:29:47.649Z,101089.22
2022-12-25T05:32:14.493Z,101100.63
2022-12-25T05:34:41.365Z,101090.72
2022-12-25T05:37:08.239Z,101092.59
2022-12-25T05:39:36.012Z,101089.09
2022-12-25T05:42:02.873Z,101084.63
2022-12-25T05:44:32.614Z,101086.06
2022-12-25T05:46:59.540Z,101096.31
2022-12-25T05:49:26.724Z,101114.34
2022-12-25T05:51:53.691Z,101121.50
2022-12-25T05:54:20.912Z,101124.97
2022-12-25T05:56:47.855Z,101129.34
2022-12-25T05:59:14.720Z,101136.22
2022-12-25T06:01:41.774Z,101134.44
2022-12-25T06:04:12.748Z,101130.88
2022-12-25T06:06:40.733Z,101128.13
2022-12-25T06:09:07.586Z,101112.97
2022-12-25T06:11:34.464Z,101127.94
2022-12-25T06:14:01.346Z,101131.41
2022-12-25T06:16:31.614Z,101121.84
2022-12-25T06:19:02.625Z,101126.34
2022-12-25T06:21:29.498Z,101121.78
2022-12-25T06:23:56.474Z,101127.72
2022-12-25T06:26:23.369Z,101124.13
2022-12-25T06:28:51.416Z,101127.63
2022-12-25T06:31:22.333Z,101125.66
2022-12-25T06:33:49.827Z,101129.25
2022-12-25T06:36:23.342Z,101125.81
2022-12-25T06:38:51.038Z,101129.91
2022-12-25T06:41:24.424Z,101124.53
2022-12-25T06:43:53.626Z,101128.91
2022-12-25T06:46:22.136Z,101132.25
2022-12-25T06:48:49.963Z,101138.34
2022-12-25T06:51:19.075Z,101138.31
2022-12-25T06:53:47.067Z,101146.97
2022-12-25T06:56:17.454Z,101151.03
2022-12-25T06:58:46.592Z,101153.03
2022-12-25T07:01:20.986Z,101152.28
2022-12-25T07:03:50.687Z,101154.12
2022-12-25T07:06:17.603Z,101150.91
2022-12-25T07:08:45.025Z,101158.84
2022-12-25T07:11:12.345Z,101163.53
2022-12-25T07:13:39.398Z,101167.00
2022-12-25T07:16:07.795Z,101174.19
2022-12-25T07:18:35.362Z,101191.28
2022-12-25T07:21:08.808Z,101192.41
2022-12-25T07:23:36.237Z,101210.34
2022-12-25T07:26:03.494Z,101203.63
2022-12-25T07:28:31.851Z,101183.94
2022-12-25T07:31:04.103Z,101201.41
2022-12-25T07:33:31.443Z,101202.00
2022-12-25T07:35:58.311Z,101200.97
2022-12-25T07:38:25.227Z,101200.94
2022-12-25T07:40:52.686Z,101200.63
2022-12-25T07:43:20.201Z,101200.94
2022-12-25T07:45:47.122Z,101205.44
2022-12-25T07:48:16.898Z,101210.81
2022-12-25T07:50:44.109Z,101212.75
2022-12-25T07:53:11.111Z,101212.22
2022-12-25T07:55:38.188Z,101215.53
2022-12-25T07:58:07.240Z,101210.66
2022-12-25T08:00:34.368Z,101212.91
2022-12-25T08:03:01.475Z,101218.44
2022-12-25T08:05:30.690Z,101218.53
2022-12-25T08:07:58.327Z,101225.50
2022-12-25T08:10:25.617Z,101229.31
2022-12-25T08:12:56.229Z,101223.81
2022-12-25T08:15:23.144Z,101229.94
2022-12-25T08:17:49.983Z,101240.25
2022-12-25T08:20:16.964Z,101236.97
2022-12-25T08:22:43.822Z,101241.03
2022-12-25T08:25:10.712Z,101246.47
2022-12-25T08:27:37.648Z,101254.16
2022-12-25T08:30:04.969Z,101255.09
2022-12-25T08:32:33.692Z,101258.84
2022-12-25T08:35:00.907Z,101250.28
2022-12-25T08:37:30.013Z,101248.53
2022-12-25T08:39:57.319Z,101252.09
2022-12-25T08:42:24.369Z,101253.09
2022-12-25T08:44:51.212Z,101255.72
2022-12-25T08:47:18.122Z,101258.50
2022-12-25T08:49:45.173Z,101258.56
2022-12-25T08:52:12.305Z,101261.34
2022-12-25T08:54:39.276Z,101254.59
2022-12-25T08:57:06.260Z,101266.03
2022-12-25T08:59:33.296Z,101264.25
2022-12-25T09:02:00.478Z,101265.19
2022-12-25T09:04:27.521Z,101262.69
2022-12-25T09:06:54.471Z,101264.41
2022-12-25T09:09:21.424Z,101259.03
2022-12-25T09:11:49.298Z,101251.56
2022-12-25T09:14:16.188Z,101251.06
2022-12-25T09:16:43.091Z,101255.38
2022-12-25T09:19:10.284Z,101250.09
2022-12-25T09:21:37.421Z,101247.59
2022-12-25T09:24:04.911Z,101247.75
2022-12-25T09:26:31.891Z,101256.44
2022-12-25T09:28:58.829Z,101248.44
2022-12-25T09:31:25.826Z,101250.22
2022-12-25T09:33:56.473Z,101245.72
2022-12-25T09:36:23.965Z,101248.56
2022-12-25T09:38:51.384Z,101244.88
2022-12-25T09:41:34.077Z,101239.56
2022-12-25T09:44:06.918Z,101253.81
2022-12-25T09:46:45.269Z,101251.13
2022-12-25T09:49:38.533Z,101248.69
2022-12-25T09:52:20.524Z,101247.56
2022-12-25T09:55:00.280Z,101242.12
2022-12-25T09:57:27.208Z,101247.25
2022-12-25T09:59:56.062Z,101254.00
2022-12-25T10:02:25.862Z,101247.03
2022-12-25T10:05:19.693Z,101247.59
2022-12-25T10:08:05.507Z,101253.81
2022-12-25T10:11:09.657Z,101245.78
2022-12-25T10:13:48.483Z,101248.88
2022-12-25T10:16:39.885Z,101249.34
2022-12-25T10:19:25.575Z,101246.81
2022-12-25T10:21:58.374Z,101249.75
2022-12-25T10:24:47.302Z,101244.78
2022-12-25T10:27:19.973Z,101252.25
2022-12-25T10:29:53.452Z,101245.41
2022-12-25T10:32:21.566Z,101244.84
2022-12-25T10:34:49.763Z,101240.75
2022-12-25T10:37:17.387Z,101237.94
2022-12-25T10:39:46.886Z,101230.28
2022-12-25T10:42:22.830Z,101227.63
2022-12-25T10:45:04.570Z,101239.38
2022-12-25T10:47:34.685Z,101235.34
2022-12-25T10:50:23.216Z,101231.22
2022-12-25T10:53:04.861Z,101234.78
2022-12-25T10:55:33.369Z,101244.56
2022-12-25T10:58:02.073Z,101243.59
2022-12-25T11:00:31.987Z,101241.81
2022-12-25T11:02:59.821Z,101231.22
2022-12-25T11:05:31.360Z,101224.75
2022-12-25T11:08:00.780Z,101233.22
2022-12-25T11:10:33.030Z,101231.09
2022-12-25T11:13:01.529Z,101214.75
2022-12-25T11:15:43.105Z,101220.78
2022-12-25T11:18:25.259Z,101217.03
2022-12-25T11:21:00.809Z,101207.03
2022-12-25T11:23:29.683Z,101205.19
2022-12-25T11:25:59.595Z,101201.19
2022-12-25T11:28:29.152Z,101201.59
2022-12-25T11:31:01.559Z,101207.59
2022-12-25T11:33:37.489Z,101200.97
2022-12-25T11:36:14.588Z,101185.78
2022-12-25T11:38:41.517Z,101198.12
2022-12-25T11:41:12.539Z,101189.56
2022-12-25T11:43:46.916Z,101184.94
2022-12-25T11:46:27.635Z,101187.81
2022-12-25T11:48:59.482Z,101183.53
2022-12-25T11:51:32.977Z,101186.00
2022-12-25T11:54:08.158Z,101180.53
2022-12-25T11:56:37.916Z,101187.62
2022-12-25T11:59:32.423Z,101174.78
2022-12-25T12:02:05.257Z,101175.78
2022-12-25T12:04:43.255Z,101173.25
2022-12-25T12:07:19.497Z,101161.56
2022-12-25T12:09:55.071Z,101176.22
2022-12-25T12:12:48.867Z,101170.53
2022-12-25T12:15:19.052Z,101172.56
2022-12-25T12:17:45.979Z,101165.91
2022-12-25T12:20:32.104Z,101172.87
2022-12-25T12:23:01.824Z,101170.41
2022-12-25T12:25:30.130Z,101171.91
2022-12-25T12:28:05.634Z,101164.69
2022-12-25T12:30:35.648Z,101168.72
2022-12-25T12:33:05.857Z,101165.81
2022-12-25T12:35:36.131Z,101165.22
2022-12-25T12:38:12.053Z,101163.72
2022-12-25T12:40:44.450Z,101166.06
2022-12-25T12:43:35.592Z,101163.97
2022-12-25T12:46:05.339Z,101156.00
2022-12-25T12:48:40.008Z,101153.25
2022-12-25T12:51:10.424Z,101167.00
2022-12-25T12:53:42.778Z,101150.53
2022-12-25T12:56:16.695Z,101163.22
2022-12-25T12:58:49.968Z,101164.75
2022-12-25T13:01:36.313Z,101164.97
2022-12-25T13:04:26.003Z,101171.41
2022-12-25T13:07:05.451Z,101173.69
2022-12-25T13:10:03.606Z,101168.41
2022-12-25T13:12:30.702Z,101175.94
2022-12-25T13:14:58.593Z,101163.47
2022-12-25T13:17:26.349Z,101165.47
2022-12-25T13:20:01.265Z,101165.97
2022-12-25T13:22:36.002Z,101159.91
2022-12-25T13:25:08.983Z,101174.16
2022-12-25T13:27:36.017Z,101167.56
2022-12-25T13:30:19.052Z,101172.63
2022-12-25T13:32:46.442Z,101171.03
2022-12-25T13:35:15.656Z,101175.09
2022-12-25T13:37:44.199Z,101173.03
2022-12-25T13:40:29.357Z,101175.97
2022-12-25T13:43:01.534Z,101157.47
2022-12-25T13:45:30.937Z,101180.91
2022-12-25T13:47:58.721Z,101162.47
2022-12-25T13:50:34.471Z,101148.84
2022-12-25T13:53:19.373Z,101165.16
2022-12-25T13:55:54.771Z,101162.41
2022-12-25T13:58:28.827Z,101170.13
2022-12-25T14:00:58.703Z,101162.22
2022-12-25T14:03:30.839Z,101168.94
2022-12-25T14:05:59.837Z,101164.69
2022-12-25T14:08:32.120Z,101162.34
2022-12-25T14:11:03.795Z,101161.53
2022-12-25T14:13:33.439Z,101170.56
2022-12-25T14:16:01.479Z,101166.25
2022-12-25T14:18:29.650Z,101165.00
2022-12-25T14:21:00.125Z,101171.50
2022-12-25T14:23:31.197Z,101174.41
2022-12-25T14:25:58.115Z,101176.59
2022-12-25T14:28:32.910Z,101183.63
2022-12-25T14:31:04.030Z,101182.94
2022-12-25T14:33:38.344Z,101183.88
2022-12-25T14:36:07.057Z,101184.31
2022-12-25T14:38:41.003Z,101201.75
2022-12-25T14:41:25.804Z,101198.44
2022-12-25T14:43:55.930Z,101197.59
2022-12-25T14:46:25.027Z,101197.62
2022-12-25T14:49:02.881Z,101196.84
2022-12-25T14:51:31.814Z,101179.22
2022-12-25T14:54:02.334Z,101173.13
2022-12-25T14:56:38.133Z,101201.44
2022-12-25T14:59:07.793Z,101204.03
2022-12-25T15:01:39.195Z,101204.94
2022-12-25T15:04:12.120Z,101206.66
2022-12-25T15:06:42.538Z,101202.25
2022-12-25T15:09:16.732Z,101202.47
2022-12-25T15:11:43.622Z,101201.62
2022-12-25T15:14:10.511Z,101192.78
2022-12-25T15:16:45.789Z,101196.37
2022-12-25T15:19:26.544Z,101202.69
2022-12-25T15:21:56.359Z,101198.34
2022-12-25T15:24:23.284Z,101199.25
2022-12-25T15:26:52.139Z,101205.38
2022-12-25T15:29:38.179Z,101192.16
2022-12-25T15:32:05.956Z,101198.38
2022-12-25T15:34:32.853Z,101200.19
2022-12-25T15:36:59.780Z,101203.75
2022-12-25T15:39:26.618Z,101216.13
2022-12-25T15:42:11.713Z,101209.97
2022-12-25T15:44:39.789Z,101208.22
2022-12-25T15:47:08.626Z,101214.47
2022-12-25T15:49:35.867Z,101220.63
2022-12-25T15:52:03.869Z,101217.09
2022-12-25T15:54:32.115Z,101209.19
2022-12-25T15:57:02.258Z,101209.25
2022-12-25T15:59:29.179Z,101196.00
2022-12-25T16:01:58.842Z,101200.44
2022-12-25T16:04:28.154Z,101210.19
2022-12-25T16:06:56.509Z,101212.87
2022-12-25T16:09:23.364Z,101207.59
2022-12-25T16:11:50.515Z,101200.59
2022-12-25T16:14:18.882Z,101193.53
2022-12-25T16:16:45.763Z,101193.56
2022-12-25T16:19:14.562Z,101198.00
2022-12-25T16:21:44.801Z,101181.25
2022-12-25T16:24:12.140Z,101209.50
2022-12-25T16:26:39.130Z,101199.75
2022-12-25T16:29:07.959Z,101200.59
2022-12-25T16:31:37.046Z,101200.69
2022-12-25T16:34:05.748Z,101209.53
2022-12-25T16:36:32.968Z,101199.81
2022-12-25T16:38:59.927Z,101198.97
2022-12-25T16:41:26.826Z,101197.19
2022-12-25T16:43:53.669Z,101191.94
2022-12-25T16:46:22.316Z,101190.16
2022-12-25T16:48:49.403Z,101187.50
2022-12-25T16:51:21.069Z,101186.63
2022-12-25T16:53:48.288Z,101197.22
2022-12-25T16:56:20.692Z,101199.03
2022-12-25T16:58:47.899Z,101200.78
2022-12-25T17:01:17.061Z,101185.75
2022-12-25T17:03:44.617Z,101195.47
2022-12-25T17:06:19.919Z,101194.59
2022-12-25T17:08:47.146Z,101201.66
2022-12-25T17:11:14.837Z,101193.69
2022-12-25T17:13:45.616Z,101187.56
2022-12-25T17:16:18.555Z,101192.84
2022-12-25T17:18:45.632Z,101184.00
2022-12-25T17:21:14.766Z,101188.44
2022-12-25T17:23:41.839Z,101197.25
2022-12-25T17:26:08.831Z,101196.37
2022-12-25T17:28:36.524Z,101199.06
2022-12-25T17:31:11.861Z,101202.59
2022-12-25T17:33:43.369Z,101199.06
2022-12-25T17:36:13.855Z,101182.28
2022-12-25T17:38:41.504Z,101184.09
2022-12-25T17:41:10.800Z,101177.91
2022-12-25T17:43:37.797Z,101169.97
2022-12-25T17:46:09.740Z,101165.56
2022-12-25T17:48:36.633Z,101160.28
2022-12-25T17:51:06.165Z,101155.87
2022-12-25T17:53:35.693Z,101132.97
2022-12-25T17:56:02.627Z,101164.72
2022-12-25T17:58:29.716Z,101170.91
2022-12-25T18:00:56.755Z,101173.56
2022-12-25T18:03:24.205Z,101163.84
2022-12-25T18:05:51.197Z,101168.25
2022-12-25T18:08:18.149Z,101156.75
2022-12-25T18:10:45.157Z,101162.09
2022-12-25T18:13:12.241Z,101176.19
2022-12-25T18:15:40.303Z,101176.19
2022-12-25T18:18:08.419Z,101190.34
2022-12-25T18:20:40.250Z,101194.72
2022-12-25T18:23:08.416Z,101194.72
2022-12-25T18:25:40.303Z,101203.56
2022-12-25T18:28:07.829Z,101192.09
2022-12-25T18:30:34.696Z,101177.97
2022-12-25T18:33:01.739Z,101177.97
2022-12-25T18:35:29.982Z,101177.94
2022-12-25T18:37:56.970Z,101166.50
2022-12-25T18:40:23.995Z,101168.25
2022-12-25T18:43:01.125Z,101182.34
2022-12-25T18:45:30.031Z,101189.41
2022-12-25T18:47:57.189Z,101164.72
2022-12-25T18:50:24.646Z,101163.84
2022-12-25T18:52:52.190Z,101162.94
2022-12-25T18:55:20.224Z,101160.31
2022-12-25T18:57:47.920Z,101155.00
2022-12-25T19:00:15.470Z,101153.25
2022-12-25T19:02:42.810Z,101157.62
2022-12-25T19:05:10.032Z,101168.25
2022-12-25T19:07:37.366Z,101162.06
2022-12-25T19:10:05.918Z,101149.69
2022-12-25T19:12:33.454Z,101150.56
2022-12-25T19:15:00.922Z,101149.66
2022-12-25T19:17:31.771Z,101149.63
2022-12-25T19:19:59.298Z,101139.00
2022-12-25T19:22:26.459Z,101140.75
2022-12-25T19:24:53.378Z,101145.16
2022-12-25T19:27:20.380Z,101142.50
2022-12-25T19:29:47.348Z,101146.94
2022-12-25T19:32:15.337Z,101141.63
2022-12-25T19:34:42.337Z,101135.47
2022-12-25T19:37:09.557Z,101145.16
2022-12-25T19:39:36.704Z,101158.44
2022-12-25T19:42:04.028Z,101153.16
2022-12-25T19:44:31.010Z,101156.69
2022-12-25T19:46:57.937Z,101151.41
2022-12-25T19:49:25.403Z,101147.88
2022-12-25T19:51:52.853Z,101129.31
2022-12-25T19:54:20.820Z,101141.72
2022-12-25T19:56:49.346Z,101140.84
2022-12-25T19:59:16.732Z,101135.56
2022-12-25T20:01:44.429Z,101137.31
2022-12-25T20:04:11.566Z,101119.72
2022-12-25T20:06:42.645Z,101110.91
2022-12-25T20:09:13.591Z,101117.06
2022-12-25T20:11:41.437Z,101105.59
2022-12-25T20:14:08.847Z,101093.25
2022-12-25T20:16:40.313Z,101089.72
2022-12-25T20:19:09.682Z,101094.13
2022-12-25T20:21:36.978Z,101102.88
2022-12-25T20:24:04.508Z,101101.13
2022-12-25T20:26:32.375Z,101104.66
2022-12-25T20:29:06.799Z,101116.09
2022-12-25T20:31:36.103Z,101109.06
2022-12-25T20:34:08.880Z,101109.06
2022-12-25T20:36:37.669Z,101107.28
2022-12-25T20:39:10.041Z,101114.31
2022-12-25T20:41:37.837Z,101110.78
2022-12-25T20:44:06.739Z,101110.78
2022-12-25T20:46:34.211Z,101113.44
2022-12-25T20:49:02.332Z,101116.09
2022-12-25T20:51:29.725Z,101116.09
2022-12-25T20:53:57.074Z,101105.50
2022-12-25T20:56:27.277Z,101087.87
2022-12-25T20:58:56.438Z,101097.56
2022-12-25T21:01:24.164Z,101093.12
2022-12-25T21:03:51.508Z,101112.56
2022-12-25T21:06:18.839Z,101114.31
2022-12-25T21:08:46.013Z,101094.87
2022-12-25T21:11:14.242Z,101105.50
2022-12-25T21:13:43.454Z,101119.56
2022-12-25T21:16:17.285Z,101114.25
2022-12-25T21:18:44.574Z,101110.78
2022-12-25T21:21:14.425Z,101110.72
2022-12-25T21:23:41.494Z,101109.84
2022-12-25T21:26:29.189Z,101097.47
2022-12-25T21:28:58.067Z,101100.09
2022-12-25T21:31:26.220Z,101104.50
2022-12-25T21:33:55.125Z,101114.16
2022-12-25T21:36:23.720Z,101105.34
2022-12-25T21:39:03.887Z,101115.00
2022-12-25T21:41:32.806Z,101114.09
2022-12-25T21:44:00.367Z,101120.22
2022-12-25T21:46:28.243Z,101121.09
2022-12-25T21:48:55.840Z,101123.75
2022-12-25T21:51:44.511Z,101108.75
2022-12-25T21:54:12.444Z,101111.41
2022-12-25T21:56:44.842Z,101106.94
2022-12-25T21:59:18.093Z,101099.84
2022-12-25T22:01:45.979Z,101121.91
2022-12-25T22:04:14.589Z,101116.62
2022-12-25T22:07:01.194Z,101124.53
2022-12-25T22:09:28.198Z,101116.56
2022-12-25T22:12:13.704Z,101135.94
2022-12-25T22:14:56.832Z,101124.47
2022-12-25T22:17:51.501Z,101118.31
2022-12-25T22:20:24.794Z,101114.78
2022-12-25T22:22:52.650Z,101106.84
2022-12-25T22:25:20.580Z,101108.56
2022-12-25T22:27:48.265Z,101116.50
2022-12-25T22:30:18.718Z,101115.56
2022-12-25T22:32:46.512Z,101112.91
2022-12-25T22:35:13.948Z,101106.75
2022-12-25T22:37:42.478Z,101104.09
2022-12-25T22:40:13.187Z,101107.59
2022-12-25T22:42:40.737Z,101112.88
2022-12-25T22:45:08.430Z,101113.78
2022-12-25T22:47:35.476Z,101110.28
2022-12-25T22:50:02.472Z,101115.50
2022-12-25T22:52:29.539Z,101117.31
2022-12-25T22:54:56.402Z,101117.31
2022-12-25T22:57:23.311Z,101109.41
2022-12-25T22:59:52.686Z,101102.34
2022-12-25T23:02:19.923Z,101108.47
2022-12-25T23:04:46.914Z,101088.16
2022-12-25T23:07:14.658Z,101097.00
2022-12-25T23:09:42.521Z,101084.63
2022-12-25T23:12:33.292Z,101094.34
2022-12-25T23:15:00.298Z,101090.72
2022-12-25T23:17:45.686Z,101104.00
2022-12-25T23:20:33.477Z,101101.25
2022-12-25T23:23:20.113Z,101106.56
2022-12-25T23:26:05.840Z,101098.66
2022-12-25T23:28:52.048Z,101077.50
2022-12-25T23:31:22.762Z,101085.41
2022-12-25T23:33:49.601Z,101075.72
2022-12-25T23:36:16.490Z,101087.16
2022-12-25T23:38:43.601Z,101085.38
2022-12-25T23:41:11.254Z,101086.22
2022-12-25T23:43:38.148Z,101092.41
2022-12-25T23:46:05.245Z,101075.66
2022-12-25T23:48:32.632Z,101082.75
2022-12-25T23:51:05.106Z,101081.84
2022-12-25T23:53:32.775Z,101077.47
2022-12-25T23:56:00.247Z,101053.63
2022-12-25T23:58:28.524Z,101069.47
